sensor_id;sensor_type;location;lat;lon;timestamp;P1;durP1;ratioP1;P2;durP2;ratioP2
22737;SDS011;11536;50.860;4.286;2023-05-14T00:01:36;41.15;;;21.10;;
22737;SDS011;11536;50.860;4.286;2023-05-14T00:04:02;38.05;;;20.30;;
22737;SDS011;11536;50.860;4.286;2023-05-14T00:06:28;42.20;;;22.10;;
22737;SDS011;11536;50.860;4.286;2023-05-14T00:08:53;41.55;;;20.63;;
22737;SDS011;11536;50.860;4.286;2023-05-14T00:11:19;41.08;;;20.25;;
22737;SDS011;11536;50.860;4.286;2023-05-14T00:13:45;40.92;;;20.67;;
22737;SDS011;11536;50.860;4.286;2023-05-14T00:16:11;47.35;;;21.17;;
22737;SDS011;11536;50.860;4.286;2023-05-14T00:18:36;43.47;;;21.45;;
22737;SDS011;11536;50.860;4.286;2023-05-14T00:21:02;42.00;;;21.27;;
22737;SDS011;11536;50.860;4.286;2023-05-14T00:23:28;44.25;;;21.02;;
22737;SDS011;11536;50.860;4.286;2023-05-14T00:25:54;40.95;;;20.73;;
22737;SDS011;11536;50.860;4.286;2023-05-14T00:28:19;41.65;;;22.08;;
22737;SDS011;11536;50.860;4.286;2023-05-14T00:30:45;44.47;;;22.27;;
22737;SDS011;11536;50.860;4.286;2023-05-14T00:33:10;39.95;;;22.20;;
22737;SDS011;11536;50.860;4.286;2023-05-14T00:35:36;43.95;;;22.13;;
22737;SDS011;11536;50.860;4.286;2023-05-14T00:38:02;48.67;;;23.65;;
22737;SDS011;11536;50.860;4.286;2023-05-14T00:40:28;49.75;;;22.23;;
22737;SDS011;11536;50.860;4.286;2023-05-14T00:42:54;52.03;;;23.60;;
22737;SDS011;11536;50.860;4.286;2023-05-14T00:45:20;48.30;;;23.13;;
22737;SDS011;11536;50.860;4.286;2023-05-14T00:47:46;46.15;;;22.10;;
22737;SDS011;11536;50.860;4.286;2023-05-14T00:50:13;48.88;;;22.65;;
22737;SDS011;11536;50.860;4.286;2023-05-14T00:52:40;49.70;;;23.58;;
22737;SDS011;11536;50.860;4.286;2023-05-14T00:55:06;47.97;;;23.00;;
22737;SDS011;11536;50.860;4.286;2023-05-14T00:57:33;46.33;;;22.13;;
22737;SDS011;11536;50.860;4.286;2023-05-14T01:00:00;42.97;;;21.13;;
22737;SDS011;11536;50.860;4.286;2023-05-14T01:02:27;45.97;;;22.02;;
22737;SDS011;11536;50.860;4.286;2023-05-14T01:04:53;47.78;;;22.20;;
22737;SDS011;11536;50.860;4.286;2023-05-14T01:07:22;47.40;;;21.25;;
22737;SDS011;11536;50.860;4.286;2023-05-14T01:10:14;42.92;;;20.33;;
22737;SDS011;11536;50.860;4.286;2023-05-14T01:15:32;43.47;;;21.48;;
22737;SDS011;11536;50.860;4.286;2023-05-14T01:18:04;44.30;;;22.77;;
22737;SDS011;11536;50.860;4.286;2023-05-14T01:20:34;48.72;;;22.10;;
22737;SDS011;11536;50.860;4.286;2023-05-14T01:23:00;48.05;;;23.10;;
22737;SDS011;11536;50.860;4.286;2023-05-14T01:25:27;43.70;;;21.33;;
22737;SDS011;11536;50.860;4.286;2023-05-14T01:28:00;50.63;;;23.00;;
22737;SDS011;11536;50.860;4.286;2023-05-14T01:30:56;51.40;;;23.67;;
22737;SDS011;11536;50.860;4.286;2023-05-14T01:33:31;49.75;;;22.42;;
22737;SDS011;11536;50.860;4.286;2023-05-14T01:35:59;47.47;;;22.67;;
22737;SDS011;11536;50.860;4.286;2023-05-14T01:38:26;46.33;;;22.67;;
22737;SDS011;11536;50.860;4.286;2023-05-14T01:40:55;52.30;;;23.27;;
22737;SDS011;11536;50.860;4.286;2023-05-14T01:43:22;48.83;;;22.80;;
22737;SDS011;11536;50.860;4.286;2023-05-14T01:45:48;48.65;;;22.60;;
22737;SDS011;11536;50.860;4.286;2023-05-14T01:48:14;49.17;;;21.88;;
22737;SDS011;11536;50.860;4.286;2023-05-14T01:50:40;48.45;;;22.77;;
22737;SDS011;11536;50.860;4.286;2023-05-14T01:53:06;48.80;;;23.13;;
22737;SDS011;11536;50.860;4.286;2023-05-14T01:55:31;48.05;;;22.90;;
22737;SDS011;11536;50.860;4.286;2023-05-14T01:57:57;48.10;;;23.02;;
22737;SDS011;11536;50.860;4.286;2023-05-14T02:00:23;45.05;;;21.85;;
22737;SDS011;11536;50.860;4.286;2023-05-14T02:02:49;51.45;;;22.85;;
22737;SDS011;11536;50.860;4.286;2023-05-14T02:05:15;46.20;;;22.55;;
22737;SDS011;11536;50.860;4.286;2023-05-14T02:07:41;47.22;;;22.10;;
22737;SDS011;11536;50.860;4.286;2023-05-14T02:10:07;48.33;;;21.83;;
22737;SDS011;11536;50.860;4.286;2023-05-14T02:12:33;49.88;;;23.27;;
22737;SDS011;11536;50.860;4.286;2023-05-14T02:14:59;45.35;;;22.58;;
22737;SDS011;11536;50.860;4.286;2023-05-14T02:17:25;46.67;;;22.08;;
22737;SDS011;11536;50.860;4.286;2023-05-14T02:19:50;46.30;;;21.70;;
22737;SDS011;11536;50.860;4.286;2023-05-14T02:22:16;47.78;;;20.92;;
22737;SDS011;11536;50.860;4.286;2023-05-14T02:24:42;48.80;;;22.20;;
22737;SDS011;11536;50.860;4.286;2023-05-14T02:27:08;44.22;;;20.88;;
22737;SDS011;11536;50.860;4.286;2023-05-14T02:29:33;49.88;;;22.85;;
22737;SDS011;11536;50.860;4.286;2023-05-14T02:31:59;42.83;;;21.35;;
22737;SDS011;11536;50.860;4.286;2023-05-14T02:34:24;40.50;;;20.13;;
22737;SDS011;11536;50.860;4.286;2023-05-14T02:36:50;50.13;;;23.10;;
22737;SDS011;11536;50.860;4.286;2023-05-14T02:39:16;45.53;;;21.58;;
22737;SDS011;11536;50.860;4.286;2023-05-14T02:41:41;46.63;;;22.67;;
22737;SDS011;11536;50.860;4.286;2023-05-14T02:44:07;45.97;;;22.45;;
22737;SDS011;11536;50.860;4.286;2023-05-14T02:46:33;46.75;;;22.05;;
22737;SDS011;11536;50.860;4.286;2023-05-14T02:48:59;49.47;;;22.05;;
22737;SDS011;11536;50.860;4.286;2023-05-14T02:51:25;50.83;;;22.00;;
22737;SDS011;11536;50.860;4.286;2023-05-14T02:53:51;46.45;;;22.83;;
22737;SDS011;11536;50.860;4.286;2023-05-14T02:56:17;48.78;;;20.52;;
22737;SDS011;11536;50.860;4.286;2023-05-14T02:58:42;47.17;;;20.85;;
22737;SDS011;11536;50.860;4.286;2023-05-14T03:01:08;52.85;;;23.85;;
22737;SDS011;11536;50.860;4.286;2023-05-14T03:03:34;49.15;;;21.38;;
22737;SDS011;11536;50.860;4.286;2023-05-14T03:06:02;52.53;;;22.05;;
22737;SDS011;11536;50.860;4.286;2023-05-14T03:08:28;48.08;;;21.63;;
22737;SDS011;11536;50.860;4.286;2023-05-14T03:10:54;47.03;;;21.52;;
22737;SDS011;11536;50.860;4.286;2023-05-14T03:13:19;53.90;;;22.92;;
22737;SDS011;11536;50.860;4.286;2023-05-14T03:15:45;48.08;;;23.25;;
22737;SDS011;11536;50.860;4.286;2023-05-14T03:18:14;45.30;;;21.77;;
22737;SDS011;11536;50.860;4.286;2023-05-14T03:20:40;48.63;;;21.92;;
22737;SDS011;11536;50.860;4.286;2023-05-14T03:23:06;45.28;;;21.38;;
22737;SDS011;11536;50.860;4.286;2023-05-14T03:25:31;47.33;;;21.85;;
22737;SDS011;11536;50.860;4.286;2023-05-14T03:27:58;46.33;;;21.02;;
22737;SDS011;11536;50.860;4.286;2023-05-14T03:30:24;44.33;;;20.45;;
22737;SDS011;11536;50.860;4.286;2023-05-14T03:32:49;45.70;;;20.58;;
22737;SDS011;11536;50.860;4.286;2023-05-14T03:35:15;46.00;;;20.88;;
22737;SDS011;11536;50.860;4.286;2023-05-14T03:37:41;50.40;;;23.02;;
22737;SDS011;11536;50.860;4.286;2023-05-14T03:40:07;49.50;;;22.30;;
22737;SDS011;11536;50.860;4.286;2023-05-14T03:42:33;48.17;;;21.35;;
22737;SDS011;11536;50.860;4.286;2023-05-14T03:44:58;46.55;;;20.83;;
22737;SDS011;11536;50.860;4.286;2023-05-14T03:47:24;48.88;;;22.10;;
22737;SDS011;11536;50.860;4.286;2023-05-14T03:49:50;41.97;;;20.48;;
22737;SDS011;11536;50.860;4.286;2023-05-14T03:52:15;47.35;;;22.27;;
22737;SDS011;11536;50.860;4.286;2023-05-14T03:54:41;50.13;;;21.42;;
22737;SDS011;11536;50.860;4.286;2023-05-14T03:57:06;51.75;;;23.45;;
22737;SDS011;11536;50.860;4.286;2023-05-14T03:59:32;47.22;;;22.50;;
22737;SDS011;11536;50.860;4.286;2023-05-14T04:01:58;49.42;;;22.48;;
22737;SDS011;11536;50.860;4.286;2023-05-14T04:04:24;49.25;;;22.13;;
22737;SDS011;11536;50.860;4.286;2023-05-14T04:06:50;49.95;;;23.00;;
22737;SDS011;11536;50.860;4.286;2023-05-14T04:09:15;46.92;;;22.15;;
22737;SDS011;11536;50.860;4.286;2023-05-14T04:11:41;51.88;;;24.30;;
22737;SDS011;11536;50.860;4.286;2023-05-14T04:14:06;43.30;;;20.40;;
22737;SDS011;11536;50.860;4.286;2023-05-14T04:16:32;49.28;;;23.13;;
22737;SDS011;11536;50.860;4.286;2023-05-14T04:18:59;47.70;;;22.25;;
22737;SDS011;11536;50.860;4.286;2023-05-14T04:21:26;49.22;;;23.63;;
22737;SDS011;11536;50.860;4.286;2023-05-14T04:23:51;46.13;;;21.23;;
22737;SDS011;11536;50.860;4.286;2023-05-14T04:26:18;49.35;;;22.80;;
22737;SDS011;11536;50.860;4.286;2023-05-14T04:28:43;49.20;;;21.85;;
22737;SDS011;11536;50.860;4.286;2023-05-14T04:31:09;46.45;;;20.88;;
22737;SDS011;11536;50.860;4.286;2023-05-14T04:33:36;44.08;;;20.92;;
22737;SDS011;11536;50.860;4.286;2023-05-14T04:36:02;49.85;;;21.42;;
22737;SDS011;11536;50.860;4.286;2023-05-14T04:38:29;49.90;;;22.98;;
22737;SDS011;11536;50.860;4.286;2023-05-14T04:40:55;50.72;;;21.88;;
22737;SDS011;11536;50.860;4.286;2023-05-14T04:43:22;47.53;;;21.90;;
22737;SDS011;11536;50.860;4.286;2023-05-14T04:45:48;49.75;;;22.48;;
22737;SDS011;11536;50.860;4.286;2023-05-14T04:48:15;47.88;;;21.85;;
22737;SDS011;11536;50.860;4.286;2023-05-14T04:50:41;55.63;;;22.98;;
22737;SDS011;11536;50.860;4.286;2023-05-14T04:53:08;49.72;;;21.48;;
22737;SDS011;11536;50.860;4.286;2023-05-14T04:55:34;49.22;;;23.15;;
22737;SDS011;11536;50.860;4.286;2023-05-14T04:57:59;46.83;;;22.23;;
22737;SDS011;11536;50.860;4.286;2023-05-14T05:00:25;46.20;;;22.35;;
22737;SDS011;11536;50.860;4.286;2023-05-14T05:02:51;47.08;;;22.25;;
22737;SDS011;11536;50.860;4.286;2023-05-14T05:05:16;54.40;;;23.88;;
22737;SDS011;11536;50.860;4.286;2023-05-14T05:07:42;47.80;;;22.58;;
22737;SDS011;11536;50.860;4.286;2023-05-14T05:10:08;53.83;;;23.17;;
22737;SDS011;11536;50.860;4.286;2023-05-14T05:12:34;51.00;;;22.33;;
22737;SDS011;11536;50.860;4.286;2023-05-14T05:14:59;56.20;;;24.13;;
22737;SDS011;11536;50.860;4.286;2023-05-14T05:17:25;52.65;;;23.65;;
22737;SDS011;11536;50.860;4.286;2023-05-14T05:19:51;52.35;;;21.20;;
22737;SDS011;11536;50.860;4.286;2023-05-14T05:22:16;52.25;;;23.63;;
22737;SDS011;11536;50.860;4.286;2023-05-14T05:24:44;50.17;;;21.65;;
22737;SDS011;11536;50.860;4.286;2023-05-14T05:27:09;48.20;;;21.27;;
22737;SDS011;11536;50.860;4.286;2023-05-14T05:29:35;46.28;;;21.75;;
22737;SDS011;11536;50.860;4.286;2023-05-14T05:32:01;47.83;;;21.90;;
22737;SDS011;11536;50.860;4.286;2023-05-14T05:34:27;51.25;;;22.55;;
22737;SDS011;11536;50.860;4.286;2023-05-14T05:36:53;48.15;;;21.00;;
22737;SDS011;11536;50.860;4.286;2023-05-14T05:39:19;46.65;;;20.50;;
22737;SDS011;11536;50.860;4.286;2023-05-14T05:41:44;48.00;;;21.80;;
22737;SDS011;11536;50.860;4.286;2023-05-14T05:44:10;46.30;;;21.17;;
22737;SDS011;11536;50.860;4.286;2023-05-14T05:46:36;43.78;;;21.08;;
22737;SDS011;11536;50.860;4.286;2023-05-14T05:49:01;47.60;;;20.90;;
22737;SDS011;11536;50.860;4.286;2023-05-14T05:51:27;49.20;;;21.85;;
22737;SDS011;11536;50.860;4.286;2023-05-14T05:53:54;46.08;;;21.17;;
22737;SDS011;11536;50.860;4.286;2023-05-14T05:56:19;47.33;;;22.13;;
22737;SDS011;11536;50.860;4.286;2023-05-14T05:58:46;45.53;;;20.73;;
22737;SDS011;11536;50.860;4.286;2023-05-14T06:01:11;44.13;;;21.38;;
22737;SDS011;11536;50.860;4.286;2023-05-14T06:03:37;47.63;;;21.45;;
22737;SDS011;11536;50.860;4.286;2023-05-14T06:06:03;45.25;;;21.20;;
22737;SDS011;11536;50.860;4.286;2023-05-14T06:08:28;47.53;;;20.92;;
22737;SDS011;11536;50.860;4.286;2023-05-14T06:10:54;44.03;;;20.05;;
22737;SDS011;11536;50.860;4.286;2023-05-14T06:13:20;47.88;;;20.63;;
22737;SDS011;11536;50.860;4.286;2023-05-14T06:15:45;46.75;;;21.00;;
22737;SDS011;11536;50.860;4.286;2023-05-14T06:18:11;47.38;;;20.92;;
22737;SDS011;11536;50.860;4.286;2023-05-14T06:20:37;45.45;;;21.55;;
22737;SDS011;11536;50.860;4.286;2023-05-14T06:23:02;49.35;;;21.95;;
22737;SDS011;11536;50.860;4.286;2023-05-14T06:25:28;44.28;;;20.65;;
22737;SDS011;11536;50.860;4.286;2023-05-14T06:27:54;48.50;;;22.58;;
22737;SDS011;11536;50.860;4.286;2023-05-14T06:30:19;52.10;;;22.40;;
22737;SDS011;11536;50.860;4.286;2023-05-14T06:32:45;44.97;;;21.30;;
22737;SDS011;11536;50.860;4.286;2023-05-14T06:35:11;44.88;;;19.75;;
22737;SDS011;11536;50.860;4.286;2023-05-14T06:37:36;48.97;;;20.88;;
22737;SDS011;11536;50.860;4.286;2023-05-14T06:40:02;45.00;;;20.48;;
22737;SDS011;11536;50.860;4.286;2023-05-14T06:42:29;46.28;;;20.88;;
22737;SDS011;11536;50.860;4.286;2023-05-14T06:44:54;48.75;;;21.30;;
22737;SDS011;11536;50.860;4.286;2023-05-14T06:47:20;52.80;;;21.52;;
22737;SDS011;11536;50.860;4.286;2023-05-14T06:49:46;47.70;;;20.95;;
22737;SDS011;11536;50.860;4.286;2023-05-14T06:52:11;47.95;;;21.17;;
22737;SDS011;11536;50.860;4.286;2023-05-14T06:54:37;47.13;;;20.92;;
22737;SDS011;11536;50.860;4.286;2023-05-14T06:57:03;44.88;;;19.52;;
22737;SDS011;11536;50.860;4.286;2023-05-14T06:59:29;45.92;;;20.02;;
22737;SDS011;11536;50.860;4.286;2023-05-14T07:01:55;47.28;;;20.80;;
22737;SDS011;11536;50.860;4.286;2023-05-14T07:04:20;42.47;;;20.05;;
22737;SDS011;11536;50.860;4.286;2023-05-14T07:06:46;43.85;;;19.65;;
22737;SDS011;11536;50.860;4.286;2023-05-14T07:09:12;43.17;;;18.77;;
22737;SDS011;11536;50.860;4.286;2023-05-14T07:11:37;44.83;;;18.38;;
22737;SDS011;11536;50.860;4.286;2023-05-14T07:14:03;40.80;;;18.98;;
22737;SDS011;11536;50.860;4.286;2023-05-14T07:16:28;41.92;;;19.35;;
22737;SDS011;11536;50.860;4.286;2023-05-14T07:18:54;42.42;;;19.00;;
22737;SDS011;11536;50.860;4.286;2023-05-14T07:21:20;39.15;;;18.25;;
22737;SDS011;11536;50.860;4.286;2023-05-14T07:23:46;42.90;;;20.83;;
22737;SDS011;11536;50.860;4.286;2023-05-14T07:26:11;43.35;;;19.50;;
22737;SDS011;11536;50.860;4.286;2023-05-14T07:28:37;40.92;;;18.75;;
22737;SDS011;11536;50.860;4.286;2023-05-14T07:31:02;40.42;;;19.73;;
22737;SDS011;11536;50.860;4.286;2023-05-14T07:33:33;44.00;;;20.23;;
22737;SDS011;11536;50.860;4.286;2023-05-14T07:35:59;43.55;;;21.10;;
22737;SDS011;11536;50.860;4.286;2023-05-14T07:38:25;37.25;;;19.05;;
22737;SDS011;11536;50.860;4.286;2023-05-14T07:40:51;41.78;;;19.42;;
22737;SDS011;11536;50.860;4.286;2023-05-14T07:43:16;49.20;;;19.65;;
22737;SDS011;11536;50.860;4.286;2023-05-14T07:45:42;40.83;;;20.60;;
22737;SDS011;11536;50.860;4.286;2023-05-14T07:48:08;43.95;;;20.50;;
22737;SDS011;11536;50.860;4.286;2023-05-14T07:50:33;39.67;;;21.05;;
22737;SDS011;11536;50.860;4.286;2023-05-14T07:52:59;39.60;;;20.27;;
22737;SDS011;11536;50.860;4.286;2023-05-14T07:55:24;41.03;;;19.23;;
22737;SDS011;11536;50.860;4.286;2023-05-14T07:57:50;37.40;;;18.60;;
22737;SDS011;11536;50.860;4.286;2023-05-14T08:00:16;33.83;;;17.92;;
22737;SDS011;11536;50.860;4.286;2023-05-14T08:02:42;34.22;;;17.52;;
22737;SDS011;11536;50.860;4.286;2023-05-14T08:05:08;36.78;;;18.65;;
22737;SDS011;11536;50.860;4.286;2023-05-14T08:07:33;37.35;;;19.00;;
22737;SDS011;11536;50.860;4.286;2023-05-14T08:09:59;36.17;;;16.80;;
22737;SDS011;11536;50.860;4.286;2023-05-14T08:12:25;38.90;;;18.67;;
22737;SDS011;11536;50.860;4.286;2023-05-14T08:14:51;36.97;;;18.38;;
22737;SDS011;11536;50.860;4.286;2023-05-14T08:17:17;33.17;;;17.75;;
22737;SDS011;11536;50.860;4.286;2023-05-14T08:19:43;30.08;;;15.85;;
22737;SDS011;11536;50.860;4.286;2023-05-14T08:22:08;33.72;;;17.83;;
22737;SDS011;11536;50.860;4.286;2023-05-14T08:24:34;34.83;;;15.77;;
22737;SDS011;11536;50.860;4.286;2023-05-14T08:27:00;33.33;;;17.60;;
22737;SDS011;11536;50.860;4.286;2023-05-14T08:29:26;29.55;;;16.40;;
22737;SDS011;11536;50.860;4.286;2023-05-14T08:31:52;33.45;;;16.77;;
22737;SDS011;11536;50.860;4.286;2023-05-14T08:34:18;30.58;;;16.58;;
22737;SDS011;11536;50.860;4.286;2023-05-14T08:36:43;33.50;;;17.35;;
22737;SDS011;11536;50.860;4.286;2023-05-14T08:39:09;34.42;;;18.23;;
22737;SDS011;11536;50.860;4.286;2023-05-14T08:41:35;33.15;;;16.33;;
22737;SDS011;11536;50.860;4.286;2023-05-14T08:46:42;33.90;;;17.20;;
22737;SDS011;11536;50.860;4.286;2023-05-14T08:51:52;33.92;;;17.42;;
22737;SDS011;11536;50.860;4.286;2023-05-14T08:54:18;31.40;;;16.52;;
22737;SDS011;11536;50.860;4.286;2023-05-14T08:56:47;35.08;;;18.00;;
22737;SDS011;11536;50.860;4.286;2023-05-14T08:59:14;31.88;;;17.17;;
22737;SDS011;11536;50.860;4.286;2023-05-14T09:01:42;30.52;;;16.85;;
22737;SDS011;11536;50.860;4.286;2023-05-14T09:04:21;34.72;;;18.05;;
22737;SDS011;11536;50.860;4.286;2023-05-14T09:06:48;35.05;;;17.50;;
22737;SDS011;11536;50.860;4.286;2023-05-14T09:09:17;31.90;;;17.52;;
22737;SDS011;11536;50.860;4.286;2023-05-14T09:11:46;32.08;;;17.98;;
22737;SDS011;11536;50.860;4.286;2023-05-14T09:14:16;29.17;;;16.60;;
22737;SDS011;11536;50.860;4.286;2023-05-14T09:16:45;32.47;;;16.70;;
22737;SDS011;11536;50.860;4.286;2023-05-14T09:19:13;27.55;;;16.60;;
22737;SDS011;11536;50.860;4.286;2023-05-14T09:21:40;30.42;;;17.55;;
22737;SDS011;11536;50.860;4.286;2023-05-14T09:24:08;28.60;;;17.40;;
22737;SDS011;11536;50.860;4.286;2023-05-14T09:26:42;27.35;;;16.17;;
22737;SDS011;11536;50.860;4.286;2023-05-14T09:29:08;28.15;;;15.98;;
22737;SDS011;11536;50.860;4.286;2023-05-14T09:31:33;29.08;;;16.27;;
22737;SDS011;11536;50.860;4.286;2023-05-14T09:34:01;30.40;;;16.30;;
22737;SDS011;11536;50.860;4.286;2023-05-14T09:36:29;29.92;;;16.67;;
22737;SDS011;11536;50.860;4.286;2023-05-14T09:38:58;29.35;;;16.23;;
22737;SDS011;11536;50.860;4.286;2023-05-14T09:41:27;32.33;;;16.15;;
22737;SDS011;11536;50.860;4.286;2023-05-14T09:43:53;27.70;;;16.35;;
22737;SDS011;11536;50.860;4.286;2023-05-14T09:46:20;25.85;;;14.88;;
22737;SDS011;11536;50.860;4.286;2023-05-14T09:48:47;30.02;;;17.23;;
22737;SDS011;11536;50.860;4.286;2023-05-14T09:51:16;28.95;;;15.73;;
22737;SDS011;11536;50.860;4.286;2023-05-14T09:53:42;25.85;;;15.85;;
22737;SDS011;11536;50.860;4.286;2023-05-14T09:56:08;28.77;;;16.40;;
22737;SDS011;11536;50.860;4.286;2023-05-14T09:58:34;26.40;;;15.65;;
22737;SDS011;11536;50.860;4.286;2023-05-14T10:01:00;25.90;;;15.13;;
22737;SDS011;11536;50.860;4.286;2023-05-14T10:03:26;28.85;;;16.30;;
22737;SDS011;11536;50.860;4.286;2023-05-14T10:05:55;26.63;;;15.43;;
22737;SDS011;11536;50.860;4.286;2023-05-14T10:10:50;26.48;;;16.08;;
22737;SDS011;11536;50.860;4.286;2023-05-14T10:13:22;25.90;;;15.43;;
22737;SDS011;11536;50.860;4.286;2023-05-14T10:16:00;34.42;;;17.42;;
22737;SDS011;11536;50.860;4.286;2023-05-14T10:18:30;28.88;;;16.77;;
22737;SDS011;11536;50.860;4.286;2023-05-14T10:21:04;31.90;;;16.25;;
22737;SDS011;11536;50.860;4.286;2023-05-14T10:23:31;28.48;;;16.65;;
22737;SDS011;11536;50.860;4.286;2023-05-14T10:26:10;27.88;;;16.75;;
22737;SDS011;11536;50.860;4.286;2023-05-14T10:28:39;26.38;;;15.43;;
22737;SDS011;11536;50.860;4.286;2023-05-14T10:31:07;27.50;;;16.08;;
22737;SDS011;11536;50.860;4.286;2023-05-14T10:33:45;28.45;;;14.75;;
22737;SDS011;11536;50.860;4.286;2023-05-14T10:36:13;26.77;;;15.68;;
22737;SDS011;11536;50.860;4.286;2023-05-14T10:38:38;24.95;;;15.52;;
22737;SDS011;11536;50.860;4.286;2023-05-14T10:41:05;24.48;;;14.45;;
22737;SDS011;11536;50.860;4.286;2023-05-14T10:43:39;30.70;;;15.73;;
22737;SDS011;11536;50.860;4.286;2023-05-14T10:46:06;27.23;;;15.45;;
22737;SDS011;11536;50.860;4.286;2023-05-14T10:48:33;26.67;;;14.75;;
22737;SDS011;11536;50.860;4.286;2023-05-14T10:51:01;22.30;;;13.82;;
22737;SDS011;11536;50.860;4.286;2023-05-14T10:53:34;24.98;;;13.68;;
22737;SDS011;11536;50.860;4.286;2023-05-14T10:56:11;22.92;;;13.65;;
22737;SDS011;11536;50.860;4.286;2023-05-14T10:58:38;23.88;;;13.32;;
22737;SDS011;11536;50.860;4.286;2023-05-14T11:01:09;26.40;;;14.52;;
22737;SDS011;11536;50.860;4.286;2023-05-14T11:03:42;22.95;;;13.10;;
22737;SDS011;11536;50.860;4.286;2023-05-14T11:06:10;27.17;;;14.68;;
22737;SDS011;11536;50.860;4.286;2023-05-14T11:08:37;24.55;;;15.05;;
22737;SDS011;11536;50.860;4.286;2023-05-14T11:11:04;21.88;;;14.10;;
22737;SDS011;11536;50.860;4.286;2023-05-14T11:13:30;25.70;;;14.52;;
22737;SDS011;11536;50.860;4.286;2023-05-14T11:15:57;25.08;;;14.32;;
22737;SDS011;11536;50.860;4.286;2023-05-14T11:18:26;25.02;;;14.68;;
22737;SDS011;11536;50.860;4.286;2023-05-14T11:20:52;22.67;;;14.13;;
22737;SDS011;11536;50.860;4.286;2023-05-14T11:23:20;28.00;;;14.98;;
22737;SDS011;11536;50.860;4.286;2023-05-14T11:25:49;22.83;;;13.27;;
22737;SDS011;11536;50.860;4.286;2023-05-14T11:28:16;25.80;;;14.20;;
22737;SDS011;11536;50.860;4.286;2023-05-14T11:30:42;23.63;;;14.10;;
22737;SDS011;11536;50.860;4.286;2023-05-14T11:33:09;24.60;;;13.82;;
22737;SDS011;11536;50.860;4.286;2023-05-14T11:35:35;22.73;;;12.95;;
22737;SDS011;11536;50.860;4.286;2023-05-14T11:38:01;24.27;;;13.90;;
22737;SDS011;11536;50.860;4.286;2023-05-14T11:40:27;24.75;;;13.77;;
22737;SDS011;11536;50.860;4.286;2023-05-14T11:42:52;23.90;;;13.57;;
22737;SDS011;11536;50.860;4.286;2023-05-14T11:45:25;21.48;;;12.65;;
22737;SDS011;11536;50.860;4.286;2023-05-14T11:47:51;22.50;;;13.73;;
22737;SDS011;11536;50.860;4.286;2023-05-14T11:50:19;24.45;;;14.13;;
22737;SDS011;11536;50.860;4.286;2023-05-14T11:52:46;20.45;;;12.60;;
22737;SDS011;11536;50.860;4.286;2023-05-14T11:55:14;23.63;;;13.32;;
22737;SDS011;11536;50.860;4.286;2023-05-14T11:57:40;21.48;;;13.20;;
22737;SDS011;11536;50.860;4.286;2023-05-14T12:00:08;22.20;;;12.40;;
22737;SDS011;11536;50.860;4.286;2023-05-14T12:02:38;22.42;;;13.57;;
22737;SDS011;11536;50.860;4.286;2023-05-14T12:05:04;25.48;;;14.07;;
22737;SDS011;11536;50.860;4.286;2023-05-14T12:07:35;23.10;;;13.43;;
22737;SDS011;11536;50.860;4.286;2023-05-14T12:10:01;22.70;;;13.95;;
22737;SDS011;11536;50.860;4.286;2023-05-14T12:12:32;23.33;;;13.00;;
22737;SDS011;11536;50.860;4.286;2023-05-14T12:15:00;19.10;;;11.88;;
22737;SDS011;11536;50.860;4.286;2023-05-14T12:17:26;20.08;;;12.73;;
22737;SDS011;11536;50.860;4.286;2023-05-14T12:19:51;20.85;;;12.35;;
22737;SDS011;11536;50.860;4.286;2023-05-14T12:22:19;20.52;;;12.07;;
22737;SDS011;11536;50.860;4.286;2023-05-14T12:24:56;24.05;;;12.65;;
22737;SDS011;11536;50.860;4.286;2023-05-14T12:27:23;22.88;;;13.40;;
22737;SDS011;11536;50.860;4.286;2023-05-14T12:30:00;22.20;;;13.07;;
22737;SDS011;11536;50.860;4.286;2023-05-14T12:32:27;23.50;;;12.70;;
22737;SDS011;11536;50.860;4.286;2023-05-14T12:34:56;21.40;;;12.52;;
22737;SDS011;11536;50.860;4.286;2023-05-14T12:37:21;19.13;;;12.95;;
22737;SDS011;11536;50.860;4.286;2023-05-14T12:39:47;21.15;;;12.48;;
22737;SDS011;11536;50.860;4.286;2023-05-14T12:42:16;20.13;;;12.57;;
22737;SDS011;11536;50.860;4.286;2023-05-14T12:44:41;23.02;;;13.00;;
22737;SDS011;11536;50.860;4.286;2023-05-14T12:47:07;19.15;;;13.02;;
22737;SDS011;11536;50.860;4.286;2023-05-14T12:49:32;20.42;;;13.10;;
22737;SDS011;11536;50.860;4.286;2023-05-14T12:51:58;22.83;;;12.65;;
22737;SDS011;11536;50.860;4.286;2023-05-14T12:54:24;20.52;;;13.02;;
22737;SDS011;11536;50.860;4.286;2023-05-14T12:56:50;19.02;;;12.43;;
22737;SDS011;11536;50.860;4.286;2023-05-14T12:59:15;21.15;;;12.85;;
22737;SDS011;11536;50.860;4.286;2023-05-14T13:01:41;22.00;;;13.50;;
22737;SDS011;11536;50.860;4.286;2023-05-14T13:04:08;21.48;;;12.75;;
22737;SDS011;11536;50.860;4.286;2023-05-14T13:06:36;21.25;;;12.85;;
22737;SDS011;11536;50.860;4.286;2023-05-14T13:09:03;19.23;;;13.10;;
22737;SDS011;11536;50.860;4.286;2023-05-14T13:11:29;19.08;;;11.35;;
22737;SDS011;11536;50.860;4.286;2023-05-14T13:13:56;21.63;;;12.63;;
22737;SDS011;11536;50.860;4.286;2023-05-14T13:16:23;19.48;;;11.05;;
22737;SDS011;11536;50.860;4.286;2023-05-14T13:18:52;18.90;;;11.45;;
22737;SDS011;11536;50.860;4.286;2023-05-14T13:21:18;20.08;;;12.00;;
22737;SDS011;11536;50.860;4.286;2023-05-14T13:23:43;17.50;;;10.57;;
22737;SDS011;11536;50.860;4.286;2023-05-14T13:26:09;15.10;;;9.13;;
22737;SDS011;11536;50.860;4.286;2023-05-14T13:28:35;18.55;;;10.32;;
22737;SDS011;11536;50.860;4.286;2023-05-14T13:31:10;18.25;;;10.45;;
22737;SDS011;11536;50.860;4.286;2023-05-14T13:33:41;17.05;;;10.80;;
22737;SDS011;11536;50.860;4.286;2023-05-14T13:36:08;16.45;;;10.93;;
22737;SDS011;11536;50.860;4.286;2023-05-14T13:38:35;18.30;;;10.18;;
22737;SDS011;11536;50.860;4.286;2023-05-14T13:41:02;17.75;;;10.73;;
22737;SDS011;11536;50.860;4.286;2023-05-14T13:43:28;16.70;;;9.82;;
22737;SDS011;11536;50.860;4.286;2023-05-14T13:45:54;18.55;;;10.88;;
22737;SDS011;11536;50.860;4.286;2023-05-14T13:48:20;16.45;;;10.85;;
22737;SDS011;11536;50.860;4.286;2023-05-14T13:50:46;18.10;;;10.43;;
22737;SDS011;11536;50.860;4.286;2023-05-14T13:53:11;14.40;;;9.60;;
22737;SDS011;11536;50.860;4.286;2023-05-14T13:55:37;18.15;;;10.30;;
22737;SDS011;11536;50.860;4.286;2023-05-14T13:58:03;18.58;;;10.63;;
22737;SDS011;11536;50.860;4.286;2023-05-14T14:00:28;14.82;;;9.57;;
22737;SDS011;11536;50.860;4.286;2023-05-14T14:02:54;17.25;;;10.00;;
22737;SDS011;11536;50.860;4.286;2023-05-14T14:05:20;16.63;;;9.63;;
22737;SDS011;11536;50.860;4.286;2023-05-14T14:07:46;16.15;;;9.90;;
22737;SDS011;11536;50.860;4.286;2023-05-14T14:10:12;17.98;;;9.93;;
22737;SDS011;11536;50.860;4.286;2023-05-14T14:12:37;15.63;;;9.27;;
22737;SDS011;11536;50.860;4.286;2023-05-14T14:15:04;14.85;;;8.95;;
22737;SDS011;11536;50.860;4.286;2023-05-14T14:17:30;14.32;;;8.73;;
22737;SDS011;11536;50.860;4.286;2023-05-14T14:19:57;14.70;;;8.00;;
22737;SDS011;11536;50.860;4.286;2023-05-14T14:22:23;15.30;;;7.90;;
22737;SDS011;11536;50.860;4.286;2023-05-14T14:24:49;14.40;;;8.27;;
22737;SDS011;11536;50.860;4.286;2023-05-14T14:27:14;13.63;;;8.23;;
22737;SDS011;11536;50.860;4.286;2023-05-14T14:29:40;12.40;;;7.53;;